Time;durP1;ratioP1;P1;durP2;ratioP2;P2;SDS_P1;SDS_P2;PMS_P1;PMS_P2;Temp;Humidity;BMP_temperature;BMP_pressure;BME280_temperature;BME280_humidity;BME280_pressure;Samples;Min_cycle;Max_cycle;Signal;HPM_P1;HPM_P2
2021/04/28 00:00:31;;;;;;;0.40;0.10;;;23.90;33.20;;;;;;5051681;28;20103;-45
2021/04/28 00:02:58;;;;;;;1.92;0.20;;;23.90;33.10;;;;;;5034546;28;20029;-47
2021/04/28 00:05:24;;;;;;;0.90;0.10;;;23.80;33.00;;;;;;5047274;28;20469;-48
2021/04/28 00:07:50;;;;;;;0.40;0.10;;;23.80;33.10;;;;;;5040613;28;20030;-49
2021/04/28 00:10:20;;;;;;;0.38;0.10;;;23.80;33.20;;;;;;5050079;28;20024;-46
2021/04/28 00:12:45;;;;;;;0.68;0.20;;;23.90;33.10;;;;;;5058440;28;20044;-48
2021/04/28 00:15:15;;;;;;;1.05;0.10;;;23.80;33.10;;;;;;5055842;28;20028;-45
2021/04/28 00:17:41;;;;;;;0.43;0.10;;;23.90;33.10;;;;;;5039964;28;20034;-46
2021/04/28 00:20:09;;;;;;;0.70;0.10;;;23.80;33.00;;;;;;5040076;28;20031;-46
2021/04/28 00:22:34;;;;;;;0.88;0.20;;;23.80;33.10;;;;;;5043906;28;20588;-49
2021/04/28 00:25:01;;;;;;;0.88;0.20;;;23.80;33.10;;;;;;5063703;28;20100;-46
2021/04/28 00:27:27;;;;;;;0.55;0.20;;;23.80;33.10;;;;;;5057420;28;20032;-49
2021/04/28 00:29:52;;;;;;;0.50;0.15;;;23.80;33.00;;;;;;5030122;28;20037;-43
2021/04/28 00:32:18;;;;;;;0.80;0.10;;;23.70;33.00;;;;;;5035211;28;20033;-47
2021/04/28 00:34:43;;;;;;;0.22;0.10;;;23.80;33.00;;;;;;5046162;28;20082;-48
2021/04/28 00:37:09;;;;;;;1.20;0.17;;;23.70;32.90;;;;;;5040160;28;20026;-46
2021/04/28 00:39:35;;;;;;;0.40;0.10;;;23.70;33.00;;;;;;5042149;28;20036;-44
2021/04/28 00:42:00;;;;;;;0.90;0.13;;;23.70;33.00;;;;;;5047615;28;20083;-47
2021/04/28 00:44:26;;;;;;;0.55;0.10;;;23.70;33.10;;;;;;5059972;28;20029;-49
2021/04/28 00:46:51;;;;;;;0.45;0.10;;;23.70;33.00;;;;;;5064621;28;20024;-46
2021/04/28 00:49:17;;;;;;;0.30;0.15;;;23.70;33.10;;;;;;5030492;28;20060;-46
2021/04/28 00:51:43;;;;;;;0.60;0.10;;;23.70;33.00;;;;;;5040715;28;20482;-48
2021/04/28 00:54:09;;;;;;;0.55;0.10;;;23.70;33.00;;;;;;5048326;28;20029;-47
2021/04/28 00:56:34;;;;;;;0.98;0.10;;;23.60;33.00;;;;;;5036119;28;20045;-44
2021/04/28 00:59:00;;;;;;;1.38;0.30;;;23.60;33.00;;;;;;5039824;28;20087;-46
2021/04/28 01:01:26;;;;;;;0.57;0.10;;;23.60;33.00;;;;;;5036638;28;20059;-47
2021/04/28 01:03:52;;;;;;;0.32;0.10;;;23.60;33.00;;;;;;5042880;28;20055;-48
2021/04/28 01:06:17;;;;;;;0.30;0.10;;;23.60;33.00;;;;;;5053881;28;20036;-49
2021/04/28 01:08:43;;;;;;;1.02;0.25;;;23.60;33.00;;;;;;5049049;28;20029;-45
2021/04/28 01:11:10;;;;;;;0.40;0.10;;;23.60;33.00;;;;;;5039718;28;20037;-46
2021/04/28 01:13:35;;;;;;;0.30;0.10;;;23.60;33.00;;;;;;5046509;28;20030;-45
2021/04/28 01:16:01;;;;;;;0.40;0.10;;;23.60;33.00;;;;;;5056466;28;20136;-45
2021/04/28 01:18:27;;;;;;;0.30;0.10;;;23.60;33.00;;;;;;5043946;28;20036;-46
2021/04/28 01:20:52;;;;;;;0.30;0.10;;;23.60;33.00;;;;;;5058019;28;20058;-46
2021/04/28 01:23:18;;;;;;;0.65;0.10;;;23.60;33.00;;;;;;5044680;28;20107;-46
2021/04/28 01:25:44;;;;;;;1.00;0.20;;;23.50;33.10;;;;;;5038430;28;20040;-47
2021/04/28 01:28:22;;;;;;;0.50;0.20;;;23.50;33.10;;;;;;5041425;28;20053;-47
2021/04/28 01:31:00;;;;;;;0.40;0.10;;;23.50;33.00;;;;;;5035827;28;20033;-48
2021/04/28 01:33:29;;;;;;;0.60;0.10;;;23.50;33.00;;;;;;5048972;28;20099;-47
2021/04/28 01:35:57;;;;;;;0.50;0.10;;;23.50;33.10;;;;;;5040624;28;20021;-48
2021/04/28 01:38:25;;;;;;;1.42;0.10;;;23.50;33.00;;;;;;5051432;28;20397;-45
2021/04/28 01:40:52;;;;;;;0.40;0.20;;;23.50;33.10;;;;;;5045632;28;20458;-46
2021/04/28 01:43:18;;;;;;;0.55;0.10;;;23.40;33.10;;;;;;5051653;28;20020;-48
2021/04/28 01:45:51;;;;;;;1.15;0.20;;;23.50;33.10;;;;;;5057234;28;20024;-46
2021/04/28 01:48:17;;;;;;;0.65;0.10;;;23.50;33.10;;;;;;5048002;28;20036;-49
2021/04/28 01:50:45;;;;;;;1.10;0.10;;;23.40;33.00;;;;;;5055312;28;20440;-46
2021/04/28 01:53:14;;;;;;;0.95;0.10;;;23.40;33.10;;;;;;5046634;28;20033;-48
2021/04/28 01:55:41;;;;;;;1.42;0.10;;;23.40;33.00;;;;;;5048949;28;20117;-46
2021/04/28 01:58:07;;;;;;;0.60;0.10;;;23.40;33.00;;;;;;5040204;28;20033;-44
2021/04/28 02:00:34;;;;;;;0.43;0.10;;;23.40;33.00;;;;;;5067053;28;20028;-47
2021/04/28 02:03:00;;;;;;;0.68;0.13;;;23.40;33.00;;;;;;5051380;28;20033;-48
2021/04/28 02:05:26;;;;;;;0.90;0.10;;;23.40;33.10;;;;;;5041160;28;20033;-48
2021/04/28 02:07:51;;;;;;;1.92;0.30;;;23.40;33.00;;;;;;5039256;28;20039;-49
2021/04/28 02:10:17;;;;;;;0.63;0.10;;;23.40;33.00;;;;;;5055488;28;20031;-46
2021/04/28 02:12:43;;;;;;;1.17;0.10;;;23.30;33.00;;;;;;5057313;28;20022;-45
2021/04/28 02:15:11;;;;;;;0.50;0.10;;;23.30;33.00;;;;;;5056093;28;20103;-43
2021/04/28 02:17:38;;;;;;;0.40;0.10;;;23.30;33.00;;;;;;5043080;28;20418;-46
2021/04/28 02:20:07;;;;;;;0.90;0.10;;;23.30;33.00;;;;;;5047771;28;20036;-49
2021/04/28 02:22:34;;;;;;;1.10;0.10;;;23.30;33.00;;;;;;5059893;28;20112;-46
2021/04/28 02:24:59;;;;;;;0.50;0.10;;;23.30;33.00;;;;;;5040036;28;20025;-46
2021/04/28 02:27:25;;;;;;;0.22;0.10;;;23.30;33.00;;;;;;5057136;28;20017;-47
2021/04/28 02:29:51;;;;;;;0.73;0.10;;;23.30;33.00;;;;;;5042922;28;20501;-47
2021/04/28 02:32:16;;;;;;;0.60;0.20;;;23.30;33.00;;;;;;5032519;28;20113;-49
2021/04/28 02:34:42;;;;;;;0.43;0.13;;;23.30;33.00;;;;;;5048085;28;20481;-47
2021/04/28 02:37:09;;;;;;;0.77;0.20;;;23.30;33.00;;;;;;5054204;28;20049;-47
2021/04/28 02:39:48;;;;;;;0.82;0.10;;;23.20;33.00;;;;;;5061096;28;20049;-46
2021/04/28 02:42:14;;;;;;;0.57;0.10;;;23.20;33.50;;;;;;5049700;28;20239;-49
2021/04/28 02:44:39;;;;;;;0.40;0.10;;;23.20;32.90;;;;;;5061692;28;20091;-45
2021/04/28 02:47:07;;;;;;;0.57;0.10;;;23.20;33.40;;;;;;5043297;28;20020;-47
2021/04/28 02:49:33;;;;;;;1.42;0.10;;;23.20;32.90;;;;;;5038202;28;20029;-49
2021/04/28 02:52:00;;;;;;;0.43;0.10;;;23.20;32.90;;;;;;5040928;28;20029;-46
2021/04/28 02:54:26;;;;;;;0.50;0.10;;;23.20;32.90;;;;;;5045567;28;20105;-48
2021/04/28 02:56:53;;;;;;;1.23;0.10;;;23.20;32.90;;;;;;5043913;28;20501;-45
2021/04/28 02:59:19;;;;;;;0.55;0.10;;;23.20;32.90;;;;;;5064336;28;20025;-46
2021/04/28 03:01:47;;;;;;;0.43;0.10;;;23.20;33.40;;;;;;5045291;28;20462;-47
2021/04/28 03:04:15;;;;;;;2.88;0.20;;;23.20;32.90;;;;;;5039895;28;20514;-46
2021/04/28 03:06:41;;;;;;;0.30;0.10;;;23.20;32.90;;;;;;5051014;28;20025;-49
2021/04/28 03:09:07;;;;;;;1.48;0.10;;;23.10;32.80;;;;;;5057840;28;20558;-45
2021/04/28 03:11:33;;;;;;;0.90;0.10;;;23.10;32.80;;;;;;5051099;28;20120;-47
2021/04/28 03:13:59;;;;;;;0.47;0.20;;;23.10;32.80;;;;;;5043103;28;20035;-48
2021/04/28 03:16:25;;;;;;;0.70;0.20;;;23.10;32.80;;;;;;5045888;28;20367;-45
2021/04/28 03:18:52;;;;;;;0.13;0.03;;;23.10;32.80;;;;;;5063000;28;20025;-46
2021/04/28 03:21:19;;;;;;;0.38;0.10;;;23.10;32.80;;;;;;5033613;28;20040;-47
2021/04/28 03:23:45;;;;;;;0.60;0.25;;;23.10;32.80;;;;;;5031150;28;20033;-47
2021/04/28 03:26:11;;;;;;;0.98;0.10;;;23.10;32.80;;;;;;5059852;28;20389;-46
2021/04/28 03:28:38;;;;;;;0.40;0.10;;;23.10;32.80;;;;;;5057874;28;20025;-47
2021/04/28 03:31:04;;;;;;;0.40;0.10;;;23.10;32.90;;;;;;5065606;28;20138;-44
2021/04/28 03:33:30;;;;;;;3.05;0.10;;;23.10;32.80;;;;;;5061311;28;20033;-48
2021/04/28 03:35:56;;;;;;;0.40;0.10;;;23.10;32.80;;;;;;5034514;28;20402;-46
2021/04/28 03:38:22;;;;;;;1.00;0.10;;;23.10;32.80;;;;;;5048971;28;20122;-48
2021/04/28 03:40:47;;;;;;;0.30;0.10;;;23.10;32.80;;;;;;5052030;28;20055;-50
2021/04/28 03:43:13;;;;;;;0.40;0.15;;;23.00;32.80;;;;;;5055927;28;20673;-48
2021/04/28 03:45:38;;;;;;;0.47;0.20;;;23.00;32.70;;;;;;5061242;28;20020;-46
2021/04/28 03:48:04;;;;;;;0.60;0.17;;;23.00;32.80;;;;;;5062399;28;20039;-49
2021/04/28 03:50:30;;;;;;;0.50;0.10;;;23.00;32.80;;;;;;5044689;28;20021;-48
2021/04/28 03:52:56;;;;;;;1.35;0.20;;;23.00;32.80;;;;;;5050397;28;20029;-48
2021/04/28 03:55:21;;;;;;;0.80;0.17;;;23.00;32.80;;;;;;5053685;28;20052;-47
2021/04/28 03:57:47;;;;;;;0.55;0.20;;;23.00;32.80;;;;;;5034715;28;20109;-49
2021/04/28 04:00:13;;;;;;;0.43;0.20;;;23.00;32.80;;;;;;5057542;28;20031;-46
2021/04/28 04:02:39;;;;;;;0.50;0.10;;;23.00;32.80;;;;;;5066217;28;20083;-50
2021/04/28 04:05:05;;;;;;;0.38;0.10;;;22.90;32.80;;;;;;5057136;28;20083;-45
2021/04/28 04:07:30;;;;;;;0.47;0.10;;;23.00;33.40;;;;;;5062420;28;20032;-46
2021/04/28 04:09:56;;;;;;;2.35;0.20;;;22.90;32.70;;;;;;5061537;28;20090;-46
2021/04/28 04:12:22;;;;;;;0.50;0.20;;;22.90;32.80;;;;;;5062491;28;20088;-49
2021/04/28 04:14:48;;;;;;;0.88;0.10;;;22.90;32.70;;;;;;5056299;28;20025;-48
2021/04/28 04:17:13;;;;;;;1.25;0.20;;;22.90;32.70;;;;;;5044147;28;20152;-46
2021/04/28 04:19:39;;;;;;;1.55;0.20;;;22.90;32.70;;;;;;5042783;28;20511;-50
2021/04/28 04:22:04;;;;;;;0.57;0.20;;;22.90;32.80;;;;;;5039899;28;20039;-46
2021/04/28 04:24:30;;;;;;;0.80;0.10;;;22.90;32.80;;;;;;5046897;28;20039;-44
2021/04/28 04:26:55;;;;;;;0.88;0.10;;;22.90;32.80;;;;;;5054343;28;20522;-44
2021/04/28 04:29:21;;;;;;;2.92;0.20;;;22.90;32.80;;;;;;5042377;28;20025;-43
2021/04/28 04:31:47;;;;;;;0.50;0.20;;;22.90;32.80;;;;;;5031477;28;20049;-45
2021/04/28 04:34:13;;;;;;;0.30;0.10;;;22.90;32.80;;;;;;5045134;28;20553;-48
2021/04/28 04:36:38;;;;;;;0.55;0.10;;;22.90;33.30;;;;;;5041571;28;20025;-45
2021/04/28 04:39:05;;;;;;;0.77;0.15;;;22.80;32.70;;;;;;5055050;28;20025;-45
2021/04/28 04:41:31;;;;;;;0.40;0.10;;;22.80;32.80;;;;;;5035325;28;20044;-44
2021/04/28 04:43:57;;;;;;;0.70;0.10;;;22.80;32.80;;;;;;5049079;28;20040;-46
2021/04/28 04:46:22;;;;;;;1.00;0.20;;;22.80;32.80;;;;;;5059270;28;20107;-42
2021/04/28 04:48:48;;;;;;;2.30;0.30;;;22.80;32.80;;;;;;5043630;28;20033;-47
2021/04/28 04:51:14;;;;;;;1.83;0.20;;;22.80;32.80;;;;;;5029853;28;20033;-45
2021/04/28 04:53:39;;;;;;;0.73;0.20;;;22.80;32.80;;;;;;5030218;28;20021;-42
2021/04/28 04:56:05;;;;;;;0.60;0.17;;;22.80;32.80;;;;;;5032214;28;20657;-45
2021/04/28 04:58:31;;;;;;;0.82;0.10;;;22.80;32.70;;;;;;5045709;28;20041;-46
2021/04/28 05:00:56;;;;;;;1.98;0.20;;;22.80;32.70;;;;;;5069069;28;20020;-44
2021/04/28 05:03:22;;;;;;;0.75;0.20;;;22.80;32.80;;;;;;5045682;28;20025;-45
2021/04/28 05:05:47;;;;;;;0.60;0.10;;;22.80;32.80;;;;;;5059089;28;20036;-45
2021/04/28 05:08:13;;;;;;;1.05;0.20;;;22.80;32.80;;;;;;5042980;28;20029;-46
2021/04/28 05:10:38;;;;;;;1.33;0.30;;;22.80;32.70;;;;;;5059744;28;20690;-44
2021/04/28 05:13:04;;;;;;;0.40;0.10;;;22.80;32.80;;;;;;5050962;28;20496;-44
2021/04/28 05:15:30;;;;;;;0.65;0.20;;;22.80;32.80;;;;;;5064482;28;20028;-47
2021/04/28 05:17:57;;;;;;;1.33;0.20;;;22.80;32.80;;;;;;5057918;28;20041;-45
2021/04/28 05:20:24;;;;;;;0.70;0.20;;;22.80;32.80;;;;;;5038943;28;20030;-46
2021/04/28 05:22:49;;;;;;;2.42;0.20;;;22.70;32.80;;;;;;5032942;28;20503;-45
2021/04/28 05:25:15;;;;;;;0.50;0.20;;;22.70;32.70;;;;;;5050116;28;20094;-44
2021/04/28 05:27:41;;;;;;;0.60;0.20;;;22.70;32.70;;;;;;5058883;28;20020;-47
2021/04/28 05:30:08;;;;;;;0.63;0.10;;;22.70;32.70;;;;;;5043704;28;20037;-48
2021/04/28 05:32:35;;;;;;;0.45;0.20;;;22.70;32.70;;;;;;5049361;28;20025;-45
2021/04/28 05:35:01;;;;;;;1.38;0.17;;;22.70;32.70;;;;;;5047210;28;20029;-44
2021/04/28 05:37:26;;;;;;;0.68;0.10;;;22.70;32.70;;;;;;5042969;28;20026;-44
2021/04/28 05:39:52;;;;;;;0.60;0.10;;;22.70;32.70;;;;;;5055062;28;20040;-45
2021/04/28 05:42:18;;;;;;;0.70;0.10;;;22.80;32.80;;;;;;5029963;28;20029;-46
2021/04/28 05:44:46;;;;;;;2.15;0.35;;;22.70;32.80;;;;;;5056611;28;20029;-46
2021/04/28 05:47:11;;;;;;;0.40;0.20;;;22.70;32.80;;;;;;5031805;28;20634;-47
2021/04/28 05:49:39;;;;;;;0.73;0.20;;;22.80;32.80;;;;;;5058660;28;20103;-49
2021/04/28 05:52:05;;;;;;;0.65;0.10;;;22.70;32.80;;;;;;5045808;28;20034;-47
2021/04/28 05:54:31;;;;;;;0.43;0.10;;;22.70;32.80;;;;;;5046841;28;20061;-45
2021/04/28 05:56:57;;;;;;;0.93;0.10;;;22.70;32.80;;;;;;5065574;28;20543;-48
2021/04/28 05:59:23;;;;;;;1.38;0.20;;;22.70;32.80;;;;;;5049294;28;20029;-49
2021/04/28 06:01:48;;;;;;;0.50;0.10;;;22.70;32.90;;;;;;5057506;28;20025;-48
2021/04/28 06:04:15;;;;;;;0.80;0.20;;;22.70;32.70;;;;;;5057727;28;20092;-48
2021/04/28 06:06:41;;;;;;;1.27;0.20;;;22.70;32.80;;;;;;5043384;28;20034;-47
2021/04/28 06:09:06;;;;;;;1.30;0.17;;;22.70;32.70;;;;;;5046106;28;20056;-46
2021/04/28 06:11:32;;;;;;;0.45;0.17;;;22.70;32.80;;;;;;5034769;28;20032;-46
2021/04/28 06:13:58;;;;;;;0.50;0.20;;;22.70;32.70;;;;;;5057382;28;20568;-48
2021/04/28 06:16:24;;;;;;;2.67;0.25;;;22.70;32.70;;;;;;5054658;28;20475;-48
2021/04/28 06:18:50;;;;;;;2.88;0.20;;;22.70;32.70;;;;;;5062055;28;20060;-48
2021/04/28 06:21:15;;;;;;;0.57;0.15;;;22.70;33.10;;;;;;5034725;28;20491;-45
2021/04/28 06:23:41;;;;;;;1.02;0.10;;;22.70;32.90;;;;;;5045806;28;20120;-48
2021/04/28 06:26:07;;;;;;;1.02;0.20;;;22.70;32.90;;;;;;5051665;28;20022;-48
2021/04/28 06:28:33;;;;;;;0.55;0.20;;;22.70;32.80;;;;;;5049318;28;20052;-50
2021/04/28 06:30:59;;;;;;;0.60;0.20;;;22.70;32.90;;;;;;5049257;28;20064;-46
2021/04/28 06:33:24;;;;;;;1.17;0.10;;;22.70;32.70;;;;;;5062902;28;20048;-47
2021/04/28 06:35:50;;;;;;;0.73;0.28;;;22.70;33.00;;;;;;5057340;28;20041;-44
2021/04/28 06:38:16;;;;;;;0.60;0.20;;;22.70;33.20;;;;;;5033228;28;20041;-45
2021/04/28 06:40:41;;;;;;;0.60;0.20;;;22.70;33.20;;;;;;5044119;28;20078;-47
2021/04/28 06:43:07;;;;;;;0.70;0.32;;;22.70;33.30;;;;;;5050805;28;20075;-44
2021/04/28 06:45:35;;;;;;;0.77;0.35;;;22.70;33.00;;;;;;5050380;28;20100;-44
2021/04/28 06:48:02;;;;;;;1.20;0.20;;;22.70;33.20;;;;;;5041040;28;20076;-46
2021/04/28 06:50:27;;;;;;;1.08;0.25;;;22.70;33.30;;;;;;5044773;28;20036;-48
2021/04/28 06:52:53;;;;;;;1.13;0.30;;;22.70;33.20;;;;;;5043571;28;20056;-46
2021/04/28 06:55:19;;;;;;;0.95;0.20;;;22.70;33.30;;;;;;5042462;28;20036;-47
2021/04/28 06:57:51;;;;;;;3.00;0.20;;;22.70;33.30;;;;;;5051344;28;20045;-49
2021/04/28 07:00:17;;;;;;;1.20;0.45;;;22.70;33.80;;;;;;5039746;28;20036;-47
2021/04/28 07:02:43;;;;;;;2.22;0.45;;;22.70;33.30;;;;;;5049830;28;20029;-47
2021/04/28 07:05:09;;;;;;;1.92;0.20;;;22.70;33.40;;;;;;5054594;28;20028;-46
2021/04/28 07:07:34;;;;;;;1.83;0.40;;;22.70;33.40;;;;;;5053019;28;20024;-44
2021/04/28 07:10:00;;;;;;;3.22;0.20;;;22.70;33.40;;;;;;5053788;28;20029;-45
2021/04/28 07:12:26;;;;;;;1.40;0.20;;;22.70;33.40;;;;;;5046773;28;20099;-49
2021/04/28 07:14:51;;;;;;;0.82;0.20;;;22.70;33.40;;;;;;5063965;28;20512;-48
2021/04/28 07:17:18;;;;;;;1.42;0.38;;;22.70;33.40;;;;;;5056550;28;20083;-47
2021/04/28 07:19:44;;;;;;;0.98;0.20;;;22.70;33.40;;;;;;5057173;28;20040;-48
2021/04/28 07:22:09;;;;;;;1.13;0.28;;;22.70;33.40;;;;;;5051217;28;20032;-47
2021/04/28 07:24:35;;;;;;;2.38;0.52;;;22.70;33.40;;;;;;5050704;28;20108;-47
2021/04/28 07:27:01;;;;;;;1.33;0.28;;;22.70;33.40;;;;;;5046633;28;20110;-46
2021/04/28 07:29:26;;;;;;;0.73;0.20;;;22.70;33.40;;;;;;5050414;28;20029;-48
2021/04/28 07:31:52;;;;;;;0.50;0.20;;;22.70;33.40;;;;;;5048842;28;20061;-47
2021/04/28 07:34:17;;;;;;;0.60;0.30;;;22.70;33.40;;;;;;5043534;28;20098;-48
2021/04/28 07:36:44;;;;;;;0.50;0.20;;;22.70;33.40;;;;;;5048432;28;20036;-48
2021/04/28 07:39:10;;;;;;;0.60;0.20;;;22.80;33.30;;;;;;5051216;28;20025;-51
2021/04/28 07:41:35;;;;;;;1.73;0.20;;;22.90;33.30;;;;;;5055679;28;20041;-52
2021/04/28 07:44:01;;;;;;;0.57;0.20;;;22.90;33.50;;;;;;5049886;28;20082;-51
2021/04/28 07:46:27;;;;;;;1.27;0.30;;;23.00;33.80;;;;;;5047484;28;20035;-51
2021/04/28 07:48:53;;;;;;;0.93;0.30;;;23.00;34.00;;;;;;5054996;28;20056;-51
2021/04/28 07:51:19;;;;;;;1.02;0.52;;;23.10;34.00;;;;;;5048119;28;20028;-52
2021/04/28 07:53:44;;;;;;;2.67;0.35;;;23.10;33.90;;;;;;5058324;28;20071;-50
2021/04/28 07:56:10;;;;;;;0.63;0.30;;;23.10;34.50;;;;;;5056080;28;20625;-47
2021/04/28 07:58:36;;;;;;;1.27;0.40;;;23.20;34.80;;;;;;5040296;28;20536;-41
2021/04/28 08:01:02;;;;;;;1.73;0.40;;;23.20;35.10;;;;;;5051486;28;20621;-43
2021/04/28 08:03:28;;;;;;;0.77;0.50;;;23.20;34.70;;;;;;5056491;28;21443;-48
2021/04/28 08:05:53;;;;;;;2.72;0.50;;;23.20;35.00;;;;;;5052731;28;20039;-49
2021/04/28 08:08:19;;;;;;;1.45;0.60;;;23.20;34.20;;;;;;5055402;28;20133;-47
2021/04/28 08:10:44;;;;;;;1.50;0.70;;;23.30;35.10;;;;;;5049404;28;20121;-45
2021/04/28 08:13:11;;;;;;;1.58;0.50;;;23.20;35.60;;;;;;5047167;28;20047;-44
2021/04/28 08:15:38;;;;;;;1.40;0.70;;;23.20;35.50;;;;;;5049333;28;20029;-44
2021/04/28 08:18:04;;;;;;;1.23;0.50;;;23.10;35.40;;;;;;5038548;28;20079;-44
2021/04/28 08:20:30;;;;;;;1.02;0.60;;;23.10;35.30;;;;;;5035567;28;20069;-45
2021/04/28 08:22:56;;;;;;;1.40;0.60;;;23.10;35.10;;;;;;5047969;28;20486;-46
2021/04/28 08:25:21;;;;;;;1.20;0.55;;;23.10;35.00;;;;;;5045145;28;20033;-44
2021/04/28 08:27:48;;;;;;;2.92;0.45;;;23.10;34.90;;;;;;5043790;28;20021;-44
2021/04/28 08:30:16;;;;;;;1.50;0.55;;;23.10;34.90;;;;;;5046484;28;20025;-46
2021/04/28 08:32:41;;;;;;;2.30;0.80;;;23.10;34.80;;;;;;5051339;28;20040;-44
2021/04/28 08:35:13;;;;;;;1.60;0.45;;;23.10;34.70;;;;;;5043823;28;20107;-45
2021/04/28 08:37:39;;;;;;;;;;;23.10;34.60;;;;;;5060130;28;20033;-46
2021/04/28 08:40:05;;;;;;;1.40;0.70;;;23.20;34.50;;;;;;5051193;28;19916;-44
2021/04/28 08:42:32;;;;;;;0.95;0.47;;;23.10;34.50;;;;;;5036718;28;20073;-42
2021/04/28 08:44:59;;;;;;;1.70;0.70;;;23.20;34.40;;;;;;5058687;28;20506;-45
2021/04/28 08:47:24;;;;;;;2.80;0.50;;;23.20;34.40;;;;;;5041825;28;20025;-44
2021/04/28 08:49:50;;;;;;;1.10;0.45;;;23.20;34.30;;;;;;5042159;28;20017;-46
2021/04/28 08:52:15;;;;;;;1.80;0.68;;;23.20;34.20;;;;;;5052174;28;20025;-45
2021/04/28 08:54:42;;;;;;;2.25;0.50;;;23.20;34.20;;;;;;5040673;28;20604;-47
2021/04/28 08:57:10;;;;;;;1.33;0.50;;;23.20;34.10;;;;;;5033837;28;20112;-43
2021/04/28 08:59:36;;;;;;;2.00;0.50;;;23.20;34.10;;;;;;5047111;28;20044;-44
2021/04/28 09:02:13;;;;;;;0.95;0.50;;;23.30;34.10;;;;;;5052142;28;20038;-42
2021/04/28 09:04:39;;;;;;;1.67;0.68;;;23.20;34.00;;;;;;5057419;28;20021;-46
2021/04/28 09:07:04;;;;;;;1.98;0.68;;;23.30;34.00;;;;;;5050470;28;20025;-45
2021/04/28 09:09:30;;;;;;;2.72;1.10;;;23.30;34.00;;;;;;5057230;28;20108;-43
2021/04/28 09:11:58;;;;;;;1.95;0.40;;;23.30;34.00;;;;;;5040632;28;20508;-45
2021/04/28 09:14:30;;;;;;;3.20;0.85;;;23.30;34.00;;;;;;5054661;28;20024;-48
2021/04/28 09:16:55;;;;;;;1.42;0.80;;;23.30;34.00;;;;;;5048160;28;20033;-45
2021/04/28 09:19:27;;;;;;;1.65;0.73;;;23.30;33.90;;;;;;5046403;28;20523;-45
2021/04/28 09:22:03;;;;;;;1.20;0.70;;;23.40;33.90;;;;;;5039105;28;20064;-44
2021/04/28 09:24:33;;;;;;;1.98;0.90;;;23.40;34.40;;;;;;5040082;28;20021;-40
2021/04/28 09:27:00;;;;;;;1.73;0.80;;;23.40;34.40;;;;;;5044777;28;20055;-42
2021/04/28 09:29:28;;;;;;;1.48;0.70;;;23.40;33.90;;;;;;5043252;28;20033;-45
2021/04/28 09:32:05;;;;;;;1.80;1.20;;;23.40;33.90;;;;;;5030448;28;20083;-43
2021/04/28 09:34:40;;;;;;;2.83;0.98;;;23.40;33.90;;;;;;5043786;28;20108;-45
2021/04/28 09:37:15;;;;;;;2.35;0.93;;;23.40;33.90;;;;;;5047007;28;20033;-44
2021/04/28 09:39:44;;;;;;;1.08;0.80;;;23.40;33.90;;;;;;5055714;28;20025;-48
2021/04/28 09:42:11;;;;;;;1.45;0.70;;;23.40;33.80;;;;;;5025510;28;20028;-45
2021/04/28 09:44:42;;;;;;;3.25;0.98;;;23.40;33.80;;;;;;5041910;28;20018;-51
2021/04/28 09:47:25;;;;;;;2.97;0.60;;;23.40;33.80;;;;;;5047508;28;20453;-47
2021/04/28 09:50:04;;;;;;;1.98;1.02;;;23.50;33.80;;;;;;5036055;28;20033;-48
2021/04/28 09:52:30;;;;;;;1.60;0.50;;;23.50;33.80;;;;;;5041403;28;20040;-47
2021/04/28 09:55:02;;;;;;;2.15;0.82;;;23.50;34.20;;;;;;5038636;28;20397;-48
2021/04/28 09:57:42;;;;;;;1.45;0.47;;;23.50;33.70;;;;;;5036272;28;20033;-48
2021/04/28 10:00:18;;;;;;;1.65;0.85;;;23.50;33.70;;;;;;5044018;28;20032;-46
2021/04/28 10:03:00;;;;;;;2.72;0.88;;;23.50;33.60;;;;;;5046375;28;20025;-48
2021/04/28 10:05:29;;;;;;;;;;;23.50;33.60;;;;;;5042627;28;20053;-46
2021/04/28 10:08:10;;;;;;;1.88;0.80;;;23.50;33.50;;;;;;5049007;28;19908;-46
2021/04/28 10:10:37;;;;;;;1.23;0.60;;;23.50;33.50;;;;;;5056777;28;20242;-45
2021/04/28 10:13:04;;;;;;;1.13;0.40;;;23.50;33.50;;;;;;5057301;28;20035;-48
2021/04/28 10:15:29;;;;;;;0.90;0.50;;;23.50;33.40;;;;;;5044911;28;20101;-48
2021/04/28 10:17:59;;;;;;;2.03;0.50;;;23.50;33.40;;;;;;5048391;28;20190;-45
2021/04/28 10:20:26;;;;;;;1.75;0.60;;;23.60;33.40;;;;;;5050599;28;20029;-46
2021/04/28 10:22:52;;;;;;;1.27;0.40;;;23.60;33.30;;;;;;5055336;28;20111;-47
2021/04/28 10:25:18;;;;;;;1.00;0.45;;;23.50;33.30;;;;;;5054196;28;20379;-47
2021/04/28 10:27:45;;;;;;;0.93;0.50;;;23.50;33.30;;;;;;5050686;28;20032;-48
2021/04/28 10:30:15;;;;;;;1.77;0.40;;;23.60;33.30;;;;;;5052184;28;20030;-48
2021/04/28 10:32:42;;;;;;;1.10;0.30;;;23.60;33.20;;;;;;5061481;28;20076;-46
2021/04/28 10:35:10;;;;;;;1.17;0.43;;;23.60;33.20;;;;;;5058527;28;20024;-47
2021/04/28 10:37:38;;;;;;;0.98;0.52;;;23.60;33.20;;;;;;5067216;28;20036;-47
2021/04/28 10:40:14;;;;;;;0.70;0.30;;;23.60;33.20;;;;;;5062400;28;20033;-47
2021/04/28 10:42:40;;;;;;;1.58;0.40;;;23.60;33.20;;;;;;5054189;28;20083;-45
2021/04/28 10:45:09;;;;;;;2.13;0.43;;;23.60;33.10;;;;;;5052711;28;20029;-44
2021/04/28 10:47:42;;;;;;;1.35;0.40;;;23.60;33.10;;;;;;5046759;28;20348;-48
2021/04/28 10:50:22;;;;;;;1.63;0.55;;;23.60;33.80;;;;;;5059010;28;20021;-50
2021/04/28 10:52:52;;;;;;;2.83;0.50;;;23.80;33.60;;;;;;5053363;28;20043;-49
2021/04/28 10:55:42;;;;;;;2.90;0.32;;;23.80;34.70;;;;;;5045665;28;20021;-47
2021/04/28 10:58:29;;;;;;;1.08;0.30;;;23.80;35.30;;;;;;5056902;28;20025;-45
2021/04/28 11:01:16;;;;;;;1.83;0.30;;;23.90;35.90;;;;;;5058945;28;20064;-49
2021/04/28 11:03:53;;;;;;;1.00;0.45;;;23.90;36.00;;;;;;5052360;28;20422;-47
2021/04/28 11:06:19;;;;;;;3.35;0.30;;;24.00;36.20;;;;;;5045570;28;20032;-49
2021/04/28 11:08:48;;;;;;;1.35;0.38;;;24.00;36.90;;;;;;5062344;28;20032;-46
2021/04/28 11:16:42;;;;;;;3.75;0.32;;;24.00;37.20;;;;;;5063896;28;20032;-47
2021/04/28 11:19:19;;;;;;;1.75;0.95;;;24.00;37.10;;;;;;5072974;28;20041;-49
2021/04/28 11:21:45;;;;;;;1.15;0.50;;;24.10;37.30;;;;;;5066776;28;20032;-44
2021/04/28 11:24:15;;;;;;;2.58;0.38;;;24.10;37.10;;;;;;5067989;28;20037;-46
2021/04/28 11:26:46;;;;;;;1.10;0.55;;;24.20;37.10;;;;;;5061968;28;20021;-46
2021/04/28 11:29:12;;;;;;;;;;;24.20;37.40;;;;;;5052514;28;20096;-48
2021/04/28 11:31:39;;;;;;;1.30;0.40;;;24.20;37.80;;;;;;5059997;28;19940;-49
2021/04/28 11:34:16;;;;;;;0.80;0.30;;;24.20;37.90;;;;;;5060459;28;20048;-50
2021/04/28 11:36:49;;;;;;;1.40;0.30;;;24.20;38.00;;;;;;5059266;28;20039;-52
2021/04/28 11:39:37;;;;;;;0.90;0.22;;;24.30;37.50;;;;;;5059551;28;20021;-50
2021/04/28 11:42:04;;;;;;;0.70;0.30;;;24.30;38.00;;;;;;5056101;28;20446;-47
2021/04/28 11:44:30;;;;;;;3.28;0.40;;;24.30;37.80;;;;;;5049112;28;20033;-48
2021/04/28 11:47:12;;;;;;;2.42;0.65;;;24.30;37.90;;;;;;5061198;28;20020;-46
2021/04/28 11:49:42;;;;;;;2.03;0.40;;;24.40;37.80;;;;;;5054480;28;20025;-51
2021/04/28 11:52:08;;;;;;;2.80;0.40;;;24.40;37.60;;;;;;5057913;28;20121;-51
2021/04/28 11:54:34;;;;;;;0.98;0.40;;;24.40;37.90;;;;;;5053912;28;20052;-47
2021/04/28 11:56:59;;;;;;;1.35;0.38;;;24.40;38.10;;;;;;5051064;28;20031;-49
2021/04/28 11:59:28;;;;;;;0.98;0.28;;;24.50;38.00;;;;;;5062600;28;20103;-50
2021/04/28 12:02:13;;;;;;;1.75;0.35;;;24.50;37.90;;;;;;5053942;28;20155;-47
2021/04/28 12:04:45;;;;;;;0.98;0.50;;;24.50;37.70;;;;;;5055467;28;20033;-42
2021/04/28 12:07:14;;;;;;;3.47;0.73;;;24.60;37.80;;;;;;5054220;28;20028;-48
2021/04/28 12:09:51;;;;;;;2.42;0.57;;;24.50;37.80;;;;;;5060902;28;20044;-47
2021/04/28 12:12:35;;;;;;;1.05;0.65;;;24.50;38.00;;;;;;5055721;28;20386;-46
2021/04/28 12:15:04;;;;;;;0.90;0.60;;;24.50;37.30;;;;;;5047681;28;20037;-45
2021/04/28 12:17:34;;;;;;;1.40;0.43;;;24.50;37.00;;;;;;5040030;28;20033;-48
2021/04/28 12:20:00;;;;;;;2.72;0.40;;;24.50;36.70;;;;;;5046470;28;20040;-50
2021/04/28 12:22:30;;;;;;;1.55;0.40;;;24.50;36.30;;;;;;5043096;28;20033;-46
2021/04/28 12:24:57;;;;;;;1.73;0.40;;;24.50;36.90;;;;;;5068564;28;20161;-48
2021/04/28 12:27:24;;;;;;;3.28;0.55;;;24.50;36.90;;;;;;5059434;28;20020;-49
2021/04/28 12:29:53;;;;;;;1.27;0.45;;;24.50;37.00;;;;;;5055622;28;20071;-47
2021/04/28 12:32:22;;;;;;;1.10;0.40;;;24.50;37.00;;;;;;5048712;28;20390;-46
2021/04/28 12:34:48;;;;;;;0.95;0.32;;;24.60;37.10;;;;;;5055746;28;20021;-45
2021/04/28 12:37:19;;;;;;;1.35;0.45;;;24.60;37.20;;;;;;5053017;28;20676;-44
2021/04/28 12:39:49;;;;;;;1.30;0.40;;;24.60;37.20;;;;;;5048528;28;20526;-45
2021/04/28 12:42:19;;;;;;;0.70;0.43;;;24.60;37.40;;;;;;5057830;28;20031;-42
2021/04/28 12:44:47;;;;;;;0.90;0.32;;;24.70;37.50;;;;;;5055998;28;20037;-44
2021/04/28 12:47:13;;;;;;;0.60;0.30;;;24.70;37.40;;;;;;5047485;28;20032;-46
2021/04/28 12:49:38;;;;;;;1.13;0.43;;;24.70;37.60;;;;;;5047492;28;20380;-46
2021/04/28 12:52:14;;;;;;;3.63;0.52;;;24.70;37.70;;;;;;5044322;28;20086;-42
2021/04/28 12:54:39;;;;;;;0.70;0.35;;;24.70;37.80;;;;;;5052781;28;20036;-45